createdAt,value
2016-11-18T00:01:01.369Z,0
2016-11-18T00:02:10.706Z,0
2016-11-18T00:03:19.707Z,0
2016-11-18T00:04:29.353Z,0
2016-11-18T00:05:38.051Z,0
2016-11-18T00:06:47.972Z,0
2016-11-18T00:07:56.967Z,0
2016-11-18T00:09:06.267Z,0
2016-11-18T00:10:15.608Z,0
2016-11-18T00:11:24.921Z,0
2016-11-18T00:12:33.928Z,0
2016-11-18T00:13:42.919Z,0
2016-11-18T00:14:51.935Z,0
2016-11-18T00:16:00.934Z,0
2016-11-18T00:17:09.628Z,0
2016-11-18T00:18:18.661Z,0
2016-11-18T00:19:27.370Z,0
2016-11-18T00:20:36.411Z,0
2016-11-18T00:21:45.409Z,0
2016-11-18T00:22:54.397Z,0
2016-11-18T00:24:03.718Z,0
2016-11-18T00:25:13.332Z,0
2016-11-18T00:26:22.627Z,0
2016-11-18T00:27:31.929Z,0
2016-11-18T00:28:40.925Z,0
2016-11-18T00:29:50.255Z,0
2016-11-18T00:30:59.260Z,0
2016-11-18T00:32:07.974Z,0
2016-11-18T00:33:17.298Z,0
2016-11-18T00:34:26.304Z,0
2016-11-18T00:35:35.006Z,0
2016-11-18T00:36:44.005Z,0
2016-11-18T00:37:53.030Z,0
2016-11-18T00:39:01.721Z,0
2016-11-18T00:40:10.745Z,0
2016-11-18T00:41:19.778Z,0
2016-11-18T00:42:28.798Z,0
2016-11-18T00:43:37.486Z,0
2016-11-18T00:44:46.191Z,0
2016-11-18T00:45:55.185Z,0
2016-11-18T00:47:04.494Z,0
2016-11-18T00:48:13.787Z,0
2016-11-18T00:49:22.473Z,0
2016-11-18T00:50:31.208Z,0
2016-11-18T00:51:40.532Z,0
2016-11-18T00:52:49.557Z,0
2016-11-18T00:53:58.545Z,0
2016-11-18T00:55:08.474Z,0
2016-11-18T00:56:17.224Z,0
2016-11-18T00:57:26.228Z,0
2016-11-18T00:58:34.939Z,0
2016-11-18T00:59:43.948Z,0
2016-11-18T01:00:52.986Z,0
2016-11-18T01:02:02.602Z,0
2016-11-18T01:03:11.932Z,0
2016-11-18T01:04:20.615Z,0
2016-11-18T01:05:29.648Z,0
2016-11-18T01:06:39.318Z,0
2016-11-18T01:07:48.085Z,0
2016-11-18T01:08:56.767Z,0
2016-11-18T01:10:05.463Z,0
2016-11-18T01:11:14.164Z,0
2016-11-18T01:12:23.163Z,0
2016-11-18T01:13:31.877Z,0
2016-11-18T01:14:40.870Z,0
2016-11-18T01:15:49.563Z,0
2016-11-18T01:16:58.273Z,0
2016-11-18T01:18:07.588Z,0
2016-11-18T01:19:17.185Z,0
2016-11-18T01:20:26.205Z,0
2016-11-18T01:21:35.212Z,0
2016-11-18T01:22:44.559Z,0
2016-11-18T01:23:53.596Z,0
2016-11-18T01:25:02.632Z,0
2016-11-18T01:26:11.345Z,0
2016-11-18T01:27:20.660Z,0
2016-11-18T01:28:29.963Z,0
2016-11-18T01:29:38.729Z,0
2016-11-18T01:30:47.810Z,0
2016-11-18T01:31:56.880Z,0
2016-11-18T01:33:05.874Z,0
2016-11-18T01:34:15.325Z,0
2016-11-18T01:35:25.243Z,0
2016-11-18T01:36:34.569Z,0
2016-11-18T01:37:43.277Z,0
2016-11-18T01:38:51.967Z,0
2016-11-18T01:40:00.978Z,0
2016-11-18T01:41:09.664Z,0
2016-11-18T01:42:18.978Z,0
2016-11-18T01:43:27.967Z,0
2016-11-18T01:44:36.649Z,0
2016-11-18T01:45:45.645Z,0
2016-11-18T01:46:54.680Z,0
2016-11-18T01:48:03.667Z,0
2016-11-18T01:49:12.661Z,0
2016-11-18T01:50:21.657Z,0
2016-11-18T01:51:30.989Z,0
2016-11-18T01:52:39.991Z,0
2016-11-18T01:53:49.309Z,0
2016-11-18T01:54:58.924Z,0
2016-11-18T01:56:07.651Z,0
2016-11-18T01:57:16.385Z,0
2016-11-18T01:58:25.085Z,0
2016-11-18T01:59:34.090Z,0
2016-11-18T02:00:43.395Z,0
2016-11-18T02:01:52.756Z,0
2016-11-18T02:03:01.765Z,0
2016-11-18T02:04:11.384Z,0
2016-11-18T02:05:20.108Z,0
2016-11-18T02:06:28.823Z,0
2016-11-18T02:07:37.828Z,0
2016-11-18T02:08:47.152Z,0
2016-11-18T02:09:56.498Z,0
2016-11-18T02:11:05.210Z,0
2016-11-18T02:12:14.225Z,0
2016-11-18T02:13:23.030Z,0
2016-11-18T02:14:32.015Z,0
2016-11-18T02:15:40.740Z,0
2016-11-18T02:16:50.382Z,0
2016-11-18T02:17:59.686Z,0
2016-11-18T02:19:09.014Z,0
2016-11-18T02:20:18.379Z,0
2016-11-18T02:21:27.374Z,0
2016-11-18T02:22:36.720Z,0
2016-11-18T02:23:45.416Z,0
2016-11-18T02:24:54.424Z,0
2016-11-18T02:26:03.869Z,0
2016-11-18T02:27:12.921Z,0
2016-11-18T02:28:22.259Z,0
2016-11-18T02:29:31.274Z,0
2016-11-18T02:30:39.987Z,0
2016-11-18T02:31:49.067Z,0
2016-11-18T02:32:58.413Z,0
2016-11-18T02:34:07.739Z,0
2016-11-18T02:35:16.468Z,0
2016-11-18T02:36:25.508Z,0
2016-11-18T02:37:34.839Z,0
2016-11-18T02:38:44.151Z,0
2016-11-18T02:39:53.831Z,0
2016-11-18T02:41:02.562Z,0
2016-11-18T02:42:11.626Z,0
2016-11-18T02:43:20.678Z,0
2016-11-18T02:44:29.988Z,0
2016-11-18T02:45:38.679Z,0
2016-11-18T02:46:47.718Z,0
2016-11-18T02:47:56.772Z,0
2016-11-18T02:49:05.852Z,0
2016-11-18T02:50:14.550Z,0
2016-11-18T02:51:23.252Z,0
2016-11-18T02:52:32.333Z,0
2016-11-18T02:53:41.642Z,0
2016-11-18T02:54:50.468Z,0
2016-11-18T02:55:59.173Z,0
2016-11-18T02:57:08.248Z,0
2016-11-18T02:58:16.979Z,0
2016-11-18T02:59:26.641Z,0
2016-11-18T03:00:36.069Z,0
2016-11-18T03:01:44.808Z,0
2016-11-18T03:02:53.505Z,0
2016-11-18T03:04:02.836Z,0
2016-11-18T03:05:11.839Z,0
2016-11-18T03:06:20.594Z,0
2016-11-18T03:07:29.320Z,0
2016-11-18T03:08:39.256Z,0
2016-11-18T03:09:48.580Z,0
2016-11-18T03:10:57.584Z,0
2016-11-18T03:12:07.265Z,0
2016-11-18T03:13:16.271Z,0
2016-11-18T03:14:25.585Z,0
2016-11-18T03:15:34.591Z,0
2016-11-18T03:16:43.324Z,0
2016-11-18T03:17:52.679Z,0
2016-11-18T03:19:01.692Z,0
2016-11-18T03:20:10.680Z,0
2016-11-18T03:21:19.683Z,0
2016-11-18T03:22:28.679Z,0
2016-11-18T03:23:37.688Z,0
2016-11-18T03:24:46.710Z,0
2016-11-18T03:25:55.408Z,0
2016-11-18T03:27:04.471Z,0
2016-11-18T03:28:13.480Z,0
2016-11-18T03:29:22.471Z,0
2016-11-18T03:30:31.539Z,0
2016-11-18T03:31:40.552Z,0
2016-11-18T03:32:49.244Z,0
2016-11-18T03:33:58.547Z,0
2016-11-18T03:35:07.540Z,0
2016-11-18T03:36:16.563Z,0
2016-11-18T03:37:25.616Z,0
2016-11-18T03:38:34.313Z,0
2016-11-18T03:39:43.022Z,0
2016-11-18T03:40:52.323Z,0
2016-11-18T03:42:01.045Z,0
2016-11-18T03:43:10.678Z,0
2016-11-18T03:44:19.374Z,0
2016-11-18T03:45:28.069Z,0
2016-11-18T03:46:37.120Z,0
2016-11-18T03:47:46.209Z,0
2016-11-18T03:48:55.248Z,0
2016-11-18T03:50:04.863Z,0
2016-11-18T03:51:13.574Z,0
2016-11-18T03:52:22.899Z,0
2016-11-18T03:53:31.590Z,0
2016-11-18T03:54:40.952Z,0
2016-11-18T03:55:50.032Z,0
2016-11-18T03:56:59.066Z,0
2016-11-18T03:58:08.696Z,0
2016-11-18T03:59:17.710Z,0
2016-11-18T04:00:26.697Z,0
2016-11-18T04:01:35.389Z,0
2016-11-18T04:02:44.130Z,0
2016-11-18T04:03:53.537Z,0
2016-11-18T04:05:02.526Z,0
2016-11-18T04:06:11.827Z,0
2016-11-18T04:07:20.837Z,0
2016-11-18T04:08:29.528Z,0
2016-11-18T04:09:38.846Z,0
2016-11-18T04:10:48.191Z,0
2016-11-18T04:11:57.266Z,0
2016-11-18T04:13:06.571Z,0
2016-11-18T04:14:15.296Z,0
2016-11-18T04:15:24.289Z,0
2016-11-18T04:16:33.342Z,0
2016-11-18T04:17:42.061Z,0
2016-11-18T04:18:51.131Z,0
2016-11-18T04:20:00.475Z,0
2016-11-18T04:21:09.539Z,0
2016-11-18T04:22:18.522Z,0
2016-11-18T04:23:27.233Z,0
2016-11-18T04:24:36.571Z,0
2016-11-18T04:25:45.598Z,0
2016-11-18T04:26:54.960Z,0
2016-11-18T04:28:04.047Z,0
2016-11-18T04:29:13.094Z,0
2016-11-18T04:30:21.793Z,0
2016-11-18T04:31:31.110Z,0
2016-11-18T04:32:40.115Z,0
2016-11-18T04:33:49.213Z,0
2016-11-18T04:34:58.292Z,0
2016-11-18T04:36:07.322Z,0
2016-11-18T04:37:16.102Z,0
2016-11-18T04:38:25.132Z,0
2016-11-18T04:39:34.756Z,0
2016-11-18T04:40:43.851Z,0
2016-11-18T04:41:53.467Z,0
2016-11-18T04:43:02.838Z,0
2016-11-18T04:44:11.859Z,0
2016-11-18T04:45:20.881Z,0
2016-11-18T04:46:29.611Z,0
2016-11-18T04:47:38.321Z,0
2016-11-18T04:48:47.373Z,0
2016-11-18T04:49:56.398Z,0
2016-11-18T04:51:06.332Z,0
2016-11-18T04:52:15.078Z,0
2016-11-18T04:53:23.812Z,0
2016-11-18T04:54:32.540Z,0
2016-11-18T04:55:41.547Z,0
2016-11-18T04:56:50.895Z,0
2016-11-18T04:57:59.890Z,0
2016-11-18T04:59:09.205Z,0
2016-11-18T05:00:18.542Z,0
2016-11-18T05:01:27.241Z,0
2016-11-18T05:02:36.285Z,0
2016-11-18T05:03:45.911Z,0
2016-11-18T05:04:55.219Z,0
2016-11-18T05:06:04.533Z,0
2016-11-18T05:07:13.563Z,0
2016-11-18T05:08:22.560Z,0
2016-11-18T05:09:31.593Z,0
2016-11-18T05:10:40.639Z,0
2016-11-18T05:11:50.324Z,0
2016-11-18T05:12:59.007Z,0
2016-11-18T05:14:08.375Z,0
2016-11-18T05:15:17.376Z,0
2016-11-18T05:16:26.682Z,0
2016-11-18T05:17:35.408Z,0
2016-11-18T05:18:44.138Z,0
2016-11-18T05:19:54.156Z,0
2016-11-18T05:21:03.213Z,0
2016-11-18T05:22:12.221Z,0
2016-11-18T05:23:21.239Z,0
2016-11-18T05:24:29.957Z,0
2016-11-18T05:25:38.942Z,0
2016-11-18T05:26:47.650Z,0
2016-11-18T05:27:56.655Z,0
2016-11-18T05:29:06.646Z,0
2016-11-18T05:30:15.643Z,0
2016-11-18T05:31:24.652Z,0
2016-11-18T05:32:33.675Z,0
2016-11-18T05:33:42.688Z,0
2016-11-18T05:34:51.691Z,0
2016-11-18T05:36:00.697Z,0
2016-11-18T05:37:10.331Z,0
2016-11-18T05:38:19.627Z,0
2016-11-18T05:39:28.640Z,0
2016-11-18T05:40:37.637Z,0
2016-11-18T05:41:47.257Z,0
2016-11-18T05:42:56.264Z,0
2016-11-18T05:44:05.559Z,0
2016-11-18T05:45:14.273Z,0
2016-11-18T05:46:23.275Z,0
2016-11-18T05:47:32.310Z,0
2016-11-18T05:48:41.033Z,0
2016-11-18T05:49:49.757Z,0
2016-11-18T05:50:58.462Z,0
2016-11-18T05:52:07.165Z,0
2016-11-18T05:53:16.490Z,0
2016-11-18T05:54:25.199Z,0
2016-11-18T05:55:34.512Z,0
2016-11-18T05:56:43.233Z,0
2016-11-18T05:57:52.223Z,0
2016-11-18T06:00:24.598Z,0
2016-11-18T06:01:33.652Z,0
2016-11-18T06:02:42.670Z,0
2016-11-18T06:03:51.363Z,0
2016-11-18T06:05:45.493Z,0
2016-11-18T06:07:26.892Z,0
2016-11-18T06:08:35.623Z,0
2016-11-18T06:09:44.922Z,0
2016-11-18T06:10:54.239Z,0
2016-11-18T06:12:03.258Z,0
2016-11-18T06:13:11.967Z,0
2016-11-18T06:14:21.296Z,0
2016-11-18T06:15:30.951Z,0
2016-11-18T06:16:39.942Z,0
2016-11-18T06:17:48.966Z,0
2016-11-18T06:18:57.999Z,0
2016-11-18T06:20:06.687Z,4
2016-11-18T06:21:15.417Z,8
2016-11-18T06:22:24.759Z,8
2016-11-18T06:23:34.076Z,4
2016-11-18T06:24:43.077Z,8
2016-11-18T06:25:51.789Z,8
2016-11-18T06:27:00.491Z,8
2016-11-18T06:28:09.504Z,8
2016-11-18T06:29:18.842Z,8
2016-11-18T06:30:28.446Z,8
2016-11-18T06:31:37.806Z,8
2016-11-18T06:32:46.855Z,8
2016-11-18T06:33:55.555Z,8
2016-11-18T06:35:04.926Z,8
2016-11-18T06:36:13.970Z,8
2016-11-18T06:37:23.308Z,8
2016-11-18T06:38:31.999Z,4
2016-11-18T06:39:41.010Z,8
2016-11-18T06:40:50.016Z,8
2016-11-18T06:41:59.136Z,12
2016-11-18T06:43:07.825Z,12
2016-11-18T06:44:16.565Z,12
2016-11-18T06:45:25.560Z,16
2016-11-18T06:46:34.581Z,16
2016-11-18T06:47:43.641Z,16
2016-11-18T06:48:52.940Z,12
2016-11-18T06:50:01.960Z,12
2016-11-18T06:51:10.987Z,16
2016-11-18T06:52:19.992Z,16
2016-11-18T06:53:28.994Z,20
2016-11-18T06:54:38.090Z,28
2016-11-18T06:55:47.098Z,32
2016-11-18T06:56:56.408Z,36
2016-11-18T06:58:05.706Z,44
2016-11-18T06:59:14.720Z,48
2016-11-18T07:00:24.021Z,48
2016-11-18T07:01:33.025Z,48
2016-11-18T07:02:42.028Z,48
2016-11-18T07:03:50.720Z,48
2016-11-18T07:04:59.426Z,52
2016-11-18T07:06:08.736Z,60
2016-11-18T07:07:18.031Z,84
2016-11-18T07:08:27.037Z,112
2016-11-18T07:09:35.733Z,108
2016-11-18T07:10:44.424Z,96
2016-11-18T07:11:53.424Z,72
2016-11-18T07:13:02.769Z,56
2016-11-18T07:14:11.458Z,44
2016-11-18T07:15:20.155Z,40
2016-11-18T07:16:28.896Z,40
2016-11-18T07:17:37.896Z,40
2016-11-18T07:18:46.663Z,52
2016-11-18T07:19:55.659Z,56
2016-11-18T07:21:04.649Z,52
2016-11-18T07:22:13.720Z,52
2016-11-18T07:23:22.741Z,64
2016-11-18T07:24:31.428Z,72
2016-11-18T07:25:40.473Z,72
2016-11-18T07:26:49.174Z,88
2016-11-18T07:27:58.483Z,100
2016-11-18T07:29:07.187Z,100
2016-11-18T07:30:15.960Z,120
2016-11-18T07:31:25.322Z,148
2016-11-18T07:32:34.698Z,244
2016-11-18T07:33:44.002Z,296
2016-11-18T07:34:53.021Z,272
2016-11-18T07:36:01.798Z,256
2016-11-18T07:37:10.833Z,256
2016-11-18T07:38:19.540Z,256
2016-11-18T07:39:28.281Z,184
2016-11-18T07:40:37.589Z,168
2016-11-18T07:41:46.618Z,176
2016-11-18T07:42:55.931Z,184
2016-11-18T07:44:04.656Z,196
2016-11-18T07:45:13.673Z,264
2016-11-18T07:46:22.994Z,252
2016-11-18T07:47:31.999Z,208
2016-11-18T07:48:41.048Z,184
2016-11-18T07:49:50.072Z,220
2016-11-18T07:50:58.780Z,232
2016-11-18T07:52:07.830Z,296
2016-11-18T07:53:16.841Z,360
2016-11-18T07:54:25.571Z,316
2016-11-18T07:55:34.588Z,320
2016-11-18T07:56:43.645Z,528
2016-11-18T07:57:52.347Z,244
2016-11-18T07:59:01.970Z,184
2016-11-18T08:00:11.327Z,176
2016-11-18T08:01:20.390Z,212
2016-11-18T08:02:29.704Z,288
2016-11-18T08:03:38.420Z,316
2016-11-18T08:04:47.776Z,296
2016-11-18T08:05:57.132Z,240
2016-11-18T08:07:05.837Z,236
2016-11-18T08:08:15.153Z,228
2016-11-18T08:09:23.878Z,236
2016-11-18T08:10:32.599Z,240
2016-11-18T08:11:41.377Z,272
2016-11-18T08:12:50.687Z,292
2016-11-18T08:13:59.684Z,324
2016-11-18T08:15:08.414Z,412
2016-11-18T08:16:17.414Z,428
2016-11-18T08:17:26.427Z,424
2016-11-18T08:18:35.806Z,488
2016-11-18T08:19:45.176Z,556
2016-11-18T08:20:54.507Z,556
2016-11-18T08:22:03.498Z,512
2016-11-18T08:23:12.514Z,576
2016-11-18T08:24:22.169Z,628
2016-11-18T08:25:31.204Z,672
2016-11-18T08:26:40.223Z,672
2016-11-18T08:27:49.223Z,656
2016-11-18T08:28:57.978Z,608
2016-11-18T08:30:07.302Z,552
2016-11-18T08:31:16.013Z,504
2016-11-18T08:32:24.743Z,472
2016-11-18T08:33:33.773Z,492
2016-11-18T08:34:42.770Z,532
2016-11-18T08:35:52.401Z,528
2016-11-18T08:37:01.122Z,560
2016-11-18T08:38:10.157Z,516
2016-11-18T08:39:19.213Z,496
2016-11-18T08:40:28.252Z,572
2016-11-18T08:41:37.271Z,672
2016-11-18T08:42:46.887Z,760
2016-11-18T08:43:56.211Z,776
2016-11-18T08:45:05.909Z,672
2016-11-18T08:46:15.841Z,588
2016-11-18T08:47:25.135Z,528
2016-11-18T08:48:34.140Z,520
2016-11-18T08:49:43.756Z,492
2016-11-18T08:50:53.087Z,560
2016-11-18T08:52:02.090Z,564
2016-11-18T08:53:11.729Z,596
2016-11-18T08:54:21.042Z,532
2016-11-18T08:55:29.750Z,528
2016-11-18T08:56:39.055Z,664
2016-11-18T08:57:47.762Z,820
2016-11-18T08:58:56.763Z,560
2016-11-18T09:00:05.618Z,472
2016-11-18T09:01:14.317Z,516
2016-11-18T09:02:23.019Z,760
2016-11-18T09:03:32.010Z,572
2016-11-18T09:04:40.718Z,472
2016-11-18T09:05:49.762Z,420
2016-11-18T09:06:58.749Z,440
2016-11-18T09:08:08.103Z,624
2016-11-18T09:09:17.123Z,808
2016-11-18T09:10:25.840Z,848
2016-11-18T09:11:35.165Z,1048
2016-11-18T09:12:43.876Z,1124
2016-11-18T09:13:53.235Z,1048
2016-11-18T09:15:02.324Z,1188
2016-11-18T09:16:11.748Z,1340
2016-11-18T09:17:21.080Z,1372
2016-11-18T09:18:30.086Z,1272
2016-11-18T09:19:39.106Z,1064
2016-11-18T09:20:48.149Z,956
2016-11-18T09:21:57.146Z,872
2016-11-18T09:23:06.484Z,740
2016-11-18T09:24:15.482Z,788
2016-11-18T09:25:24.520Z,808
2016-11-18T09:26:33.228Z,944
2016-11-18T09:27:42.234Z,812
2016-11-18T09:28:50.947Z,644
2016-11-18T09:29:59.680Z,604
2016-11-18T09:31:08.375Z,680
2016-11-18T09:32:17.374Z,852
2016-11-18T09:33:27.022Z,988
2016-11-18T09:34:35.736Z,1036
2016-11-18T09:35:44.448Z,736
2016-11-18T09:36:53.451Z,648
2016-11-18T09:38:03.082Z,436
2016-11-18T09:39:12.099Z,228
2016-11-18T09:40:21.732Z,136
2016-11-18T09:41:31.058Z,112
2016-11-18T09:42:40.686Z,108
2016-11-18T09:43:49.405Z,92
2016-11-18T09:44:58.727Z,72
2016-11-18T09:46:08.063Z,100
2016-11-18T09:47:17.366Z,144
2016-11-18T09:48:26.073Z,128
2016-11-18T09:49:34.775Z,132
2016-11-18T09:50:44.102Z,188
2016-11-18T09:51:53.726Z,200
2016-11-18T09:53:02.725Z,264
2016-11-18T09:54:11.719Z,176
2016-11-18T09:55:20.438Z,108
2016-11-18T09:56:29.455Z,276
2016-11-18T09:57:38.152Z,332
2016-11-18T09:58:47.171Z,272
2016-11-18T09:59:56.804Z,208
2016-11-18T10:01:05.823Z,440
2016-11-18T10:02:15.435Z,468
2016-11-18T10:03:24.790Z,420
2016-11-18T10:04:33.796Z,416
2016-11-18T10:05:43.123Z,288
2016-11-18T10:06:52.142Z,196
2016-11-18T10:08:01.187Z,324
2016-11-18T10:09:10.216Z,388
2016-11-18T10:10:19.231Z,444
2016-11-18T10:11:28.552Z,524
2016-11-18T10:12:37.541Z,612
2016-11-18T10:13:46.579Z,588
2016-11-18T10:14:55.574Z,520
2016-11-18T10:16:04.911Z,536
2016-11-18T10:17:14.249Z,520
2016-11-18T10:18:23.299Z,456
2016-11-18T10:19:32.296Z,432
2016-11-18T10:20:41.642Z,436
2016-11-18T10:21:50.397Z,568
2016-11-18T10:22:59.093Z,624
2016-11-18T10:24:08.191Z,732
2016-11-18T10:25:17.261Z,704
2016-11-18T10:26:26.578Z,684
2016-11-18T10:27:35.582Z,704
2016-11-18T10:28:44.627Z,800
2016-11-18T10:29:54.250Z,836
2016-11-18T10:31:02.961Z,856
2016-11-18T10:32:11.657Z,844
2016-11-18T10:33:20.384Z,932
2016-11-18T10:34:30.314Z,1056
2016-11-18T10:35:39.335Z,1136
2016-11-18T10:36:48.053Z,1244
2016-11-18T10:37:57.666Z,1232
2016-11-18T10:39:07.319Z,1172
2016-11-18T10:40:16.629Z,1004
2016-11-18T10:41:25.357Z,1172
2016-11-18T10:42:34.073Z,1340
2016-11-18T10:43:43.409Z,1300
2016-11-18T10:44:52.734Z,1336
2016-11-18T10:46:02.060Z,1288
2016-11-18T10:47:11.388Z,1400
2016-11-18T10:48:20.423Z,1380
2016-11-18T10:49:29.434Z,980
2016-11-18T10:50:38.775Z,868
2016-11-18T10:51:47.812Z,776
2016-11-18T10:52:57.112Z,712
2016-11-18T10:54:06.435Z,692
2016-11-18T10:55:15.127Z,708
2016-11-18T10:56:24.763Z,716
2016-11-18T10:57:33.784Z,720
2016-11-18T10:58:42.795Z,600
2016-11-18T10:59:51.524Z,644
2016-11-18T11:01:00.234Z,744
2016-11-18T11:02:09.562Z,652
2016-11-18T11:03:18.588Z,756
2016-11-18T11:04:27.886Z,752
2016-11-18T11:05:36.889Z,564
2016-11-18T11:06:45.620Z,484
2016-11-18T11:07:54.621Z,476
2016-11-18T11:09:03.633Z,536
2016-11-18T11:10:12.964Z,620
2016-11-18T11:11:21.967Z,704
2016-11-18T11:12:30.680Z,860
2016-11-18T11:13:39.683Z,1108
2016-11-18T11:14:48.680Z,1332
2016-11-18T11:15:57.678Z,860
2016-11-18T11:17:06.363Z,804
2016-11-18T11:18:15.692Z,864
2016-11-18T11:19:25.331Z,752
2016-11-18T11:20:34.662Z,548
2016-11-18T11:21:43.965Z,456
2016-11-18T11:22:52.974Z,336
2016-11-18T11:24:01.689Z,372
2016-11-18T11:25:10.698Z,416
2016-11-18T11:26:19.719Z,388
2016-11-18T11:27:28.748Z,300
2016-11-18T11:28:38.061Z,260
2016-11-18T11:29:47.068Z,228
2016-11-18T11:30:56.073Z,228
2016-11-18T11:32:05.726Z,292
2016-11-18T11:33:14.451Z,324
2016-11-18T11:34:23.193Z,412
2016-11-18T11:35:32.267Z,376
2016-11-18T11:36:41.591Z,376
2016-11-18T11:37:50.323Z,424
2016-11-18T11:38:59.037Z,584
2016-11-18T11:40:07.752Z,624
2016-11-18T11:41:17.366Z,452
2016-11-18T11:42:26.670Z,436
2016-11-18T11:43:35.379Z,468
2016-11-18T11:44:44.375Z,548
2016-11-18T11:45:53.984Z,564
2016-11-18T11:47:03.290Z,564
2016-11-18T11:48:11.971Z,520
2016-11-18T11:49:20.979Z,476
2016-11-18T11:50:30.326Z,460
2016-11-18T11:51:39.650Z,420
2016-11-18T11:52:48.383Z,392
2016-11-18T11:53:58.006Z,388
2016-11-18T11:55:06.690Z,364
2016-11-18T11:56:15.724Z,372
2016-11-18T11:57:24.463Z,420
2016-11-18T11:58:33.458Z,496
2016-11-18T11:59:42.780Z,516
2016-11-18T12:00:51.793Z,596
2016-11-18T12:02:01.116Z,648
2016-11-18T12:03:09.817Z,640
2016-11-18T12:04:19.425Z,580
2016-11-18T12:05:28.113Z,544
2016-11-18T12:06:36.807Z,576
2016-11-18T12:07:46.415Z,576
2016-11-18T12:08:55.426Z,600
2016-11-18T12:10:04.118Z,620
2016-11-18T12:11:12.839Z,660
2016-11-18T12:12:21.831Z,744
2016-11-18T12:13:30.826Z,812
2016-11-18T12:14:40.152Z,700
2016-11-18T12:15:49.525Z,604
2016-11-18T12:16:58.236Z,616
2016-11-18T12:18:07.888Z,540
2016-11-18T12:19:16.897Z,480
2016-11-18T12:20:25.592Z,432
2016-11-18T12:21:34.943Z,444
2016-11-18T12:22:43.967Z,520
2016-11-18T12:23:52.667Z,536
2016-11-18T12:25:01.418Z,504
2016-11-18T12:26:10.457Z,512
2016-11-18T12:27:19.507Z,528
2016-11-18T12:28:28.536Z,612
2016-11-18T12:29:37.541Z,616
2016-11-18T12:30:46.863Z,588
2016-11-18T12:31:56.223Z,532
2016-11-18T12:33:04.979Z,500
2016-11-18T12:34:14.299Z,476
2016-11-18T12:35:23.353Z,464
2016-11-18T12:36:32.959Z,456
2016-11-18T12:37:41.943Z,456
2016-11-18T12:38:50.956Z,456
2016-11-18T12:39:59.662Z,456
2016-11-18T12:41:08.359Z,460
2016-11-18T12:42:17.366Z,460
2016-11-18T12:43:26.082Z,456
2016-11-18T12:44:35.404Z,468
2016-11-18T12:45:44.413Z,448
2016-11-18T12:46:53.108Z,420
2016-11-18T12:48:02.110Z,468
2016-11-18T12:49:11.106Z,452
2016-11-18T12:50:20.144Z,452
2016-11-18T12:51:28.854Z,428
2016-11-18T12:52:38.151Z,420
2016-11-18T12:53:47.748Z,440
2016-11-18T12:54:56.745Z,440
2016-11-18T12:56:06.067Z,444
2016-11-18T12:57:15.056Z,436
2016-11-18T12:58:24.669Z,408
2016-11-18T12:59:33.959Z,432
2016-11-18T13:00:43.284Z,404
2016-11-18T13:01:52.000Z,428
2016-11-18T13:03:01.008Z,432
2016-11-18T13:04:09.997Z,428
2016-11-18T13:05:19.321Z,432
2016-11-18T13:06:28.317Z,428
2016-11-18T13:07:37.346Z,428
2016-11-18T13:08:46.691Z,428
2016-11-18T13:09:55.692Z,424
2016-11-18T13:11:04.692Z,424
2016-11-18T13:12:13.691Z,428
2016-11-18T13:13:22.702Z,424
2016-11-18T13:14:32.016Z,424
2016-11-18T13:15:40.705Z,424
2016-11-18T13:16:49.713Z,424
2016-11-18T13:17:58.740Z,420
2016-11-18T13:19:07.741Z,364
2016-11-18T13:20:16.799Z,352
2016-11-18T13:21:25.814Z,348
2016-11-18T13:22:34.812Z,384
2016-11-18T13:23:43.810Z,364
2016-11-18T13:24:52.519Z,368
2016-11-18T13:26:01.224Z,396
2016-11-18T13:27:10.577Z,428
2016-11-18T13:28:19.295Z,508
2016-11-18T13:29:28.289Z,604
2016-11-18T13:30:37.323Z,744
2016-11-18T13:31:46.648Z,708
2016-11-18T13:32:55.656Z,620
2016-11-18T13:34:04.971Z,608
2016-11-18T13:35:14.602Z,612
2016-11-18T13:36:23.615Z,560
2016-11-18T13:37:32.321Z,380
2016-11-18T13:38:41.021Z,204
2016-11-18T13:39:50.048Z,176
2016-11-18T13:40:59.037Z,176
2016-11-18T13:42:08.383Z,160
2016-11-18T13:43:17.085Z,196
2016-11-18T13:44:25.803Z,284
2016-11-18T13:45:35.108Z,364
2016-11-18T13:46:44.408Z,364
2016-11-18T13:47:53.445Z,260
2016-11-18T13:49:02.182Z,280
2016-11-18T13:50:10.899Z,420
2016-11-18T13:51:19.908Z,616
2016-11-18T13:52:28.590Z,500
2016-11-18T13:53:37.590Z,424
2016-11-18T13:54:46.635Z,388
2016-11-18T13:55:55.940Z,400
2016-11-18T13:57:04.959Z,476
2016-11-18T13:58:13.983Z,452
2016-11-18T13:59:22.685Z,396
2016-11-18T14:00:31.983Z,380
2016-11-18T14:01:41.075Z,368
2016-11-18T14:02:50.065Z,368
2016-11-18T14:03:58.761Z,372
2016-11-18T14:05:08.080Z,368
2016-11-18T14:06:17.083Z,360
2016-11-18T14:07:26.084Z,356
2016-11-18T14:08:35.697Z,352
2016-11-18T14:09:45.302Z,352
2016-11-18T14:10:54.605Z,348
2016-11-18T14:12:03.931Z,344
2016-11-18T14:13:12.938Z,340
2016-11-18T14:14:22.564Z,340
2016-11-18T14:15:32.179Z,336
2016-11-18T14:16:41.212Z,336
2016-11-18T14:17:51.139Z,332
2016-11-18T14:18:59.837Z,328
2016-11-18T14:20:09.146Z,328
2016-11-18T14:21:18.163Z,324
2016-11-18T14:22:26.849Z,320
2016-11-18T14:23:35.578Z,304
2016-11-18T14:24:44.588Z,316
2016-11-18T14:25:53.589Z,312
2016-11-18T14:27:02.311Z,308
2016-11-18T14:28:11.026Z,308
2016-11-18T14:29:20.032Z,304
2016-11-18T14:30:29.025Z,304
2016-11-18T14:31:38.364Z,284
2016-11-18T14:32:48.287Z,284
2016-11-18T14:33:56.979Z,284
2016-11-18T14:35:06.590Z,276
2016-11-18T14:36:16.505Z,276
2016-11-18T14:37:25.511Z,268
2016-11-18T14:38:34.829Z,264
2016-11-18T14:39:43.829Z,264
2016-11-18T14:40:52.861Z,260
2016-11-18T14:42:01.887Z,264
2016-11-18T14:43:11.210Z,260
2016-11-18T14:44:19.983Z,252
2016-11-18T14:45:29.283Z,252
2016-11-18T14:46:38.944Z,244
2016-11-18T14:47:47.669Z,244
2016-11-18T14:48:57.313Z,256
2016-11-18T14:50:06.686Z,252
2016-11-18T14:51:15.729Z,252
2016-11-18T14:52:24.726Z,236
2016-11-18T14:53:34.081Z,220
2016-11-18T14:54:42.771Z,220
2016-11-18T14:55:52.085Z,216
2016-11-18T14:57:01.395Z,208
2016-11-18T14:58:10.449Z,208
2016-11-18T14:59:20.069Z,200
2016-11-18T15:00:28.787Z,200
2016-11-18T15:01:37.807Z,196
2016-11-18T15:02:46.840Z,192
2016-11-18T15:03:55.868Z,192
2016-11-18T15:05:04.900Z,184
2016-11-18T15:06:13.925Z,180
2016-11-18T15:07:22.964Z,180
2016-11-18T15:08:31.718Z,172
2016-11-18T15:09:40.713Z,168
2016-11-18T15:10:50.031Z,164
2016-11-18T15:11:59.355Z,164
2016-11-18T15:13:08.063Z,160
2016-11-18T15:14:16.784Z,152
2016-11-18T15:15:25.801Z,152
2016-11-18T15:16:34.842Z,148
2016-11-18T15:17:43.872Z,140
2016-11-18T15:18:53.186Z,140
2016-11-18T15:20:02.255Z,132
2016-11-18T15:21:11.631Z,120
2016-11-18T15:22:20.983Z,116
2016-11-18T15:23:30.317Z,116
2016-11-18T15:24:39.038Z,108
2016-11-18T15:25:48.382Z,104
2016-11-18T15:26:57.107Z,96
2016-11-18T15:28:06.738Z,88
2016-11-18T15:29:16.399Z,88
2016-11-18T15:30:25.740Z,80
2016-11-18T15:31:35.707Z,72
2016-11-18T15:32:44.425Z,68
2016-11-18T15:33:53.444Z,64
2016-11-18T15:35:02.165Z,60
2016-11-18T15:36:11.190Z,56
2016-11-18T15:37:19.907Z,48
2016-11-18T15:38:28.928Z,44
2016-11-18T15:39:37.946Z,40
2016-11-18T15:40:47.633Z,40
2016-11-18T15:41:56.668Z,36
2016-11-18T15:43:05.734Z,32
2016-11-18T15:44:14.527Z,28
2016-11-18T15:45:23.257Z,24
2016-11-18T15:46:32.158Z,20
2016-11-18T15:47:41.187Z,20
2016-11-18T15:48:50.210Z,16
2016-11-18T15:49:58.917Z,16
2016-11-18T15:51:07.627Z,12
2016-11-18T15:52:16.933Z,8
2016-11-18T15:53:25.949Z,8
2016-11-18T15:54:35.580Z,8
2016-11-18T15:55:44.576Z,4
2016-11-18T15:56:53.289Z,8
2016-11-18T15:58:02.313Z,4
2016-11-18T15:59:11.369Z,0
2016-11-18T16:00:20.385Z,4
2016-11-18T16:01:29.094Z,4
2016-11-18T16:02:37.831Z,0
2016-11-18T16:03:46.552Z,0
2016-11-18T16:04:55.574Z,0
2016-11-18T16:06:04.589Z,0
2016-11-18T16:07:13.584Z,0
2016-11-18T16:08:22.903Z,0
2016-11-18T16:09:32.219Z,0
2016-11-18T16:10:41.233Z,0
2016-11-18T16:11:49.949Z,0
2016-11-18T16:12:58.658Z,0
2016-11-18T16:14:07.668Z,0
2016-11-18T16:15:17.309Z,0
2016-11-18T16:16:30.261Z,0
2016-11-18T16:17:38.972Z,0
2016-11-18T16:18:48.287Z,0
2016-11-18T16:19:57.333Z,0
2016-11-18T16:21:06.377Z,0
2016-11-18T16:22:16.209Z,0
2016-11-18T16:23:24.950Z,0
2016-11-18T16:24:33.979Z,0
2016-11-18T16:25:43.126Z,0